Time;durP1;ratioP1;P1;durP2;ratioP2;P2;SDS_P1;SDS_P2;PMS_P1;PMS_P2;Temp;Humidity;BMP_temperature;BMP_pressure;BME280_temperature;BME280_humidity;BME280_pressure;Samples;Min_cycle;Max_cycle;Signal;HPM_P1;HPM_P2
2022/04/14 00:01:22;;;;;;;12.18;8.68;;;13.70;99.90;;;;;;5026277;28;20281;-69
2022/04/14 00:03:48;;;;;;;10.95;7.82;;;13.70;99.90;;;;;;5026633;28;20676;-68
2022/04/14 00:06:14;;;;;;;10.85;7.50;;;13.70;99.90;;;;;;5024882;28;20210;-69
2022/04/14 00:08:39;;;;;;;10.27;6.78;;;13.60;99.90;;;;;;5025366;28;20205;-68
2022/04/14 00:11:05;;;;;;;8.77;6.30;;;13.50;99.90;;;;;;5024743;28;20573;-70
2022/04/14 00:13:31;;;;;;;9.15;7.25;;;13.40;99.90;;;;;;5025797;28;20179;-70
2022/04/14 00:15:56;;;;;;;9.80;6.20;;;13.40;99.90;;;;;;5025999;28;20217;-67
2022/04/14 00:18:22;;;;;;;9.38;6.25;;;13.30;99.90;;;;;;5023969;28;20680;-69
2022/04/14 00:20:47;;;;;;;9.10;6.85;;;13.30;99.90;;;;;;5025644;28;20237;-69
2022/04/14 00:23:13;;;;;;;10.88;6.70;;;13.30;99.90;;;;;;5025529;28;20221;-71
2022/04/14 00:25:39;;;;;;;10.27;6.82;;;13.30;99.90;;;;;;5025872;28;20214;-67
2022/04/14 00:28:04;;;;;;;14.50;7.07;;;13.30;99.90;;;;;;5025199;28;20657;-68
2022/04/14 00:30:30;;;;;;;12.50;7.30;;;13.30;99.90;;;;;;5026166;28;20217;-67
2022/04/14 00:32:55;;;;;;;12.02;7.47;;;13.30;99.90;;;;;;5026287;28;20578;-69
2022/04/14 00:35:21;;;;;;;10.38;6.78;;;13.30;99.90;;;;;;5024837;28;20237;-68
2022/04/14 00:37:46;;;;;;;11.57;6.90;;;13.20;99.90;;;;;;5024581;28;20198;-66
2022/04/14 00:40:13;;;;;;;10.85;7.25;;;13.30;99.90;;;;;;5025307;28;20289;-68
2022/04/14 00:42:41;;;;;;;10.50;7.30;;;13.20;99.90;;;;;;5025571;28;20523;-69
2022/04/14 00:45:09;;;;;;;8.90;6.70;;;13.20;99.90;;;;;;5025306;28;20301;-67
2022/04/14 00:47:38;;;;;;;10.63;7.25;;;13.10;99.90;;;;;;5024797;28;20207;-68
2022/04/14 00:50:05;;;;;;;9.63;7.35;;;13.10;99.90;;;;;;5025459;28;20237;-68
2022/04/14 00:52:30;;;;;;;10.57;6.93;;;13.00;99.90;;;;;;5025527;28;20206;-68
2022/04/14 00:54:56;;;;;;;9.90;6.93;;;13.00;99.90;;;;;;5025245;28;20191;-70
2022/04/14 00:57:22;;;;;;;11.32;7.28;;;13.00;99.90;;;;;;5024536;28;20186;-70
2022/04/14 00:59:48;;;;;;;13.43;7.72;;;13.00;99.90;;;;;;5025112;28;21198;-69
2022/04/14 01:02:13;;;;;;;12.38;7.20;;;13.00;99.90;;;;;;5025319;28;20183;-68
2022/04/14 01:04:40;;;;;;;10.02;6.90;;;12.90;99.90;;;;;;5025090;28;20218;-69
2022/04/14 01:07:07;;;;;;;8.98;6.80;;;13.00;99.90;;;;;;5024578;28;20396;-67
2022/04/14 01:09:33;;;;;;;10.07;6.70;;;12.90;99.90;;;;;;5023952;28;20199;-69
2022/04/14 01:12:00;;;;;;;11.73;7.68;;;12.90;99.90;;;;;;5024699;28;20657;-68
2022/04/14 01:14:27;;;;;;;10.95;6.25;;;12.90;99.90;;;;;;5025113;28;20581;-68
2022/04/14 01:17:01;;;;;;;10.15;7.03;;;12.90;99.90;;;;;;5024353;28;20183;-69
2022/04/14 01:19:27;;;;;;;10.45;6.63;;;12.80;99.90;;;;;;5024778;28;20211;-70
2022/04/14 01:22:12;;;;;;;7.15;6.18;;;12.80;99.90;;;;;;5025113;28;20187;-67
2022/04/14 01:24:39;;;;;;;9.55;6.38;;;12.70;99.90;;;;;;5025232;28;20191;-70
2022/04/14 01:27:05;;;;;;;9.90;6.18;;;12.60;99.90;;;;;;5024213;28;20544;-69
2022/04/14 01:29:31;;;;;;;9.43;6.30;;;12.50;99.90;;;;;;5024748;28;20203;-68
2022/04/14 01:31:58;;;;;;;7.82;5.90;;;12.50;99.90;;;;;;5024584;28;20655;-70
2022/04/14 01:34:24;;;;;;;8.70;6.20;;;12.40;99.90;;;;;;5025332;28;21005;-69
2022/04/14 01:36:50;;;;;;;10.00;6.85;;;12.40;99.90;;;;;;5024131;28;20541;-68
2022/04/14 01:39:16;;;;;;;10.45;6.25;;;12.40;99.90;;;;;;5024486;28;20224;-67
2022/04/14 01:41:42;;;;;;;8.68;6.00;;;12.40;99.90;;;;;;5024882;28;20635;-69
2022/04/14 01:44:10;;;;;;;8.00;6.30;;;12.30;99.90;;;;;;5025460;28;20244;-69
2022/04/14 01:46:37;;;;;;;10.00;6.47;;;12.30;99.90;;;;;;5024134;28;20699;-68
2022/04/14 01:49:03;;;;;;;10.38;6.30;;;12.30;99.90;;;;;;5024880;28;20919;-70
2022/04/14 01:51:30;;;;;;;9.20;6.38;;;12.30;99.90;;;;;;5024383;28;20233;-68
2022/04/14 01:53:55;;;;;;;8.57;5.95;;;12.30;99.90;;;;;;5025126;28;20195;-68
2022/04/14 01:56:21;;;;;;;7.70;5.88;;;12.30;99.90;;;;;;5023423;28;20187;-68
2022/04/14 01:58:52;;;;;;;9.85;6.47;;;12.30;99.90;;;;;;5023183;28;20217;-69
2022/04/14 02:01:18;;;;;;;11.57;5.85;;;12.30;99.90;;;;;;5024203;28;20646;-68
2022/04/14 02:03:44;;;;;;;10.93;6.35;;;12.30;99.90;;;;;;5023874;28;20208;-68
2022/04/14 02:06:09;;;;;;;8.73;5.90;;;12.30;99.90;;;;;;5023782;28;20214;-70
2022/04/14 02:08:35;;;;;;;7.85;6.20;;;12.30;99.90;;;;;;5024061;28;20290;-67
2022/04/14 02:11:04;;;;;;;11.70;6.65;;;12.30;99.90;;;;;;5024470;28;20653;-68
2022/04/14 02:13:31;;;;;;;10.40;7.03;;;12.30;99.90;;;;;;5024458;28;20544;-69
2022/04/14 02:15:57;;;;;;;8.82;5.75;;;12.30;99.90;;;;;;5027120;28;20642;-68
2022/04/14 02:18:23;;;;;;;9.35;6.10;;;12.30;99.90;;;;;;5027403;28;20226;-69
2022/04/14 02:20:48;;;;;;;9.00;5.82;;;12.20;99.90;;;;;;5028593;28;20191;-69
2022/04/14 02:23:14;;;;;;;8.00;6.25;;;12.30;99.90;;;;;;5028110;28;20233;-67
2022/04/14 02:25:39;;;;;;;8.40;6.15;;;12.20;99.90;;;;;;5009993;28;20206;-67
2022/04/14 02:28:05;;;;;;;8.45;6.15;;;12.20;99.90;;;;;;5027399;28;20228;-69
2022/04/14 02:30:33;;;;;;;7.07;5.60;;;12.20;99.90;;;;;;5028410;28;20171;-67
2022/04/14 02:32:59;;;;;;;7.63;5.63;;;12.20;99.90;;;;;;5028243;28;20311;-68
2022/04/14 02:35:25;;;;;;;8.80;6.15;;;12.20;99.90;;;;;;5028054;28;20187;-68
2022/04/14 02:37:51;;;;;;;6.43;4.80;;;12.10;99.90;;;;;;5027113;28;20179;-69
2022/04/14 02:40:17;;;;;;;6.85;4.82;;;12.10;99.90;;;;;;5009328;28;20235;-69
2022/04/14 02:42:43;;;;;;;8.45;5.13;;;12.10;99.90;;;;;;5027944;28;20931;-69
2022/04/14 02:45:09;;;;;;;8.40;5.07;;;12.20;99.90;;;;;;5028140;28;20565;-69
2022/04/14 02:47:37;;;;;;;6.47;5.15;;;12.20;99.90;;;;;;5026589;28;20217;-68
2022/04/14 02:50:04;;;;;;;6.22;4.50;;;12.30;99.90;;;;;;5026293;28;20243;-69
2022/04/14 02:52:29;;;;;;;7.05;4.40;;;12.30;99.90;;;;;;5027082;28;20550;-69
2022/04/14 02:54:55;;;;;;;7.38;4.85;;;12.30;99.90;;;;;;5027216;28;20191;-68
2022/04/14 02:57:21;;;;;;;5.35;4.20;;;12.40;99.90;;;;;;5026534;28;20594;-68
2022/04/14 02:59:46;;;;;;;6.28;4.35;;;12.40;99.90;;;;;;5027854;28;20257;-68
2022/04/14 03:02:12;;;;;;;6.47;4.55;;;12.30;99.90;;;;;;5027640;28;20179;-67
2022/04/14 03:04:37;;;;;;;7.10;4.57;;;12.30;99.90;;;;;;5025818;28;20609;-69
2022/04/14 03:07:05;;;;;;;7.68;4.65;;;12.30;99.90;;;;;;5025514;28;20221;-67
2022/04/14 03:09:31;;;;;;;7.13;4.10;;;12.30;99.90;;;;;;5026238;28;20199;-69
2022/04/14 03:11:56;;;;;;;6.53;4.03;;;12.30;99.90;;;;;;5026828;28;20616;-70
2022/04/14 03:14:22;;;;;;;4.93;3.75;;;12.30;99.90;;;;;;5025670;28;20815;-70
2022/04/14 03:16:47;;;;;;;7.18;4.70;;;12.30;99.90;;;;;;5024931;28;20541;-66
2022/04/14 03:19:13;;;;;;;5.25;4.25;;;12.40;99.90;;;;;;5024361;28;20253;-68
2022/04/14 03:21:39;;;;;;;5.97;4.15;;;12.30;99.90;;;;;;5025034;28;20587;-70
2022/04/14 03:24:04;;;;;;;5.50;4.10;;;12.30;99.90;;;;;;5025885;28;20293;-69
2022/04/14 03:26:30;;;;;;;6.57;4.03;;;12.30;99.90;;;;;;5023906;28;20317;-70
2022/04/14 03:28:56;;;;;;;6.55;4.20;;;12.30;99.90;;;;;;5025419;28;20660;-69
2022/04/14 03:31:21;;;;;;;6.55;4.80;;;12.30;99.90;;;;;;5024997;28;20186;-68
2022/04/14 03:33:47;;;;;;;7.35;4.30;;;12.40;99.90;;;;;;5026246;28;20179;-69
2022/04/14 03:36:13;;;;;;;6.20;4.00;;;12.40;99.90;;;;;;5025589;28;20178;-68
2022/04/14 03:38:38;;;;;;;4.80;4.13;;;12.50;99.90;;;;;;5026602;28;20306;-71
2022/04/14 03:41:05;;;;;;;5.10;4.32;;;12.40;99.90;;;;;;5026854;28;20287;-69
2022/04/14 03:43:35;;;;;;;4.97;3.75;;;12.40;99.90;;;;;;5026776;28;20183;-68
2022/04/14 03:46:01;;;;;;;6.00;4.10;;;12.40;99.90;;;;;;5026798;28;20214;-72
2022/04/14 03:48:26;;;;;;;6.10;4.65;;;12.40;99.90;;;;;;5026002;28;20204;-69
2022/04/14 03:50:54;;;;;;;8.00;4.72;;;12.30;99.90;;;;;;5026408;28;20183;-72
2022/04/14 03:53:19;;;;;;;6.93;4.60;;;12.30;99.90;;;;;;5026651;28;20191;-70
2022/04/14 03:55:48;;;;;;;8.63;4.93;;;12.30;99.90;;;;;;5026678;28;20178;-69
2022/04/14 03:58:15;;;;;;;6.30;4.70;;;12.20;99.90;;;;;;5025808;28;20873;-70
2022/04/14 04:00:41;;;;;;;8.85;5.53;;;12.20;99.90;;;;;;5026681;28;20831;-71
2022/04/14 04:03:11;;;;;;;6.57;4.57;;;12.20;99.90;;;;;;5026386;28;20222;-70
2022/04/14 04:05:37;;;;;;;6.78;5.30;;;12.20;99.90;;;;;;5026392;28;20211;-70
2022/04/14 04:08:07;;;;;;;8.30;5.28;;;12.20;99.90;;;;;;5025605;28;20281;-70
2022/04/14 04:10:33;;;;;;;6.45;4.70;;;12.30;99.90;;;;;;5026053;28;20191;-71
2022/04/14 04:12:58;;;;;;;8.65;5.15;;;12.20;99.90;;;;;;5026420;28;20186;-69
2022/04/14 04:15:24;;;;;;;11.10;5.28;;;12.20;99.90;;;;;;5026388;28;20182;-71
2022/04/14 04:17:53;;;;;;;7.47;5.43;;;12.20;99.90;;;;;;5025866;28;20201;-68
2022/04/14 04:20:20;;;;;;;8.25;5.28;;;12.20;99.90;;;;;;5025893;28;20190;-68
2022/04/14 04:22:46;;;;;;;8.63;5.28;;;12.20;99.90;;;;;;5026079;28;20186;-70
2022/04/14 04:25:11;;;;;;;7.03;4.97;;;12.20;99.90;;;;;;5026062;28;20209;-69
2022/04/14 04:27:37;;;;;;;7.57;4.65;;;12.20;99.90;;;;;;5025020;28;20218;-69
2022/04/14 04:30:04;;;;;;;7.72;5.30;;;12.10;99.90;;;;;;5026273;28;20217;-70
2022/04/14 04:32:33;;;;;;;11.13;5.40;;;12.20;99.90;;;;;;5025736;28;20186;-69
2022/04/14 04:34:59;;;;;;;6.18;4.90;;;12.30;99.90;;;;;;5025902;28;20266;-70
2022/04/14 04:37:25;;;;;;;5.82;4.80;;;12.20;99.90;;;;;;5024652;28;20179;-70
2022/04/14 04:39:50;;;;;;;7.07;5.28;;;12.20;99.90;;;;;;5026130;28;20562;-69
2022/04/14 04:42:16;;;;;;;6.32;5.30;;;12.20;99.90;;;;;;5025928;28;20290;-69
2022/04/14 04:44:41;;;;;;;9.85;5.50;;;12.20;99.90;;;;;;5025925;28;20253;-70
2022/04/14 04:47:07;;;;;;;7.70;5.10;;;12.20;99.90;;;;;;5024385;28;20207;-72
2022/04/14 04:49:33;;;;;;;7.68;5.35;;;12.20;99.90;;;;;;5025885;28;20286;-68
2022/04/14 04:52:00;;;;;;;7.85;5.15;;;12.10;99.90;;;;;;5025405;28;20287;-71
2022/04/14 04:54:26;;;;;;;7.53;5.13;;;12.10;99.90;;;;;;5026021;28;20183;-71
2022/04/14 04:56:52;;;;;;;7.85;4.90;;;12.10;99.90;;;;;;5024594;28;20669;-71
2022/04/14 04:59:17;;;;;;;8.13;5.43;;;12.10;99.90;;;;;;5025498;28;20217;-70
2022/04/14 05:01:43;;;;;;;8.40;5.60;;;12.10;99.90;;;;;;5024969;28;20194;-70
2022/04/14 05:04:11;;;;;;;7.13;5.28;;;12.20;99.90;;;;;;5007977;28;20251;-70
2022/04/14 05:06:40;;;;;;;6.50;5.28;;;12.20;99.90;;;;;;5024494;28;20256;-72
2022/04/14 05:09:06;;;;;;;6.60;5.05;;;12.20;99.90;;;;;;5025465;28;20561;-69
2022/04/14 05:11:32;;;;;;;6.57;5.47;;;12.20;99.90;;;;;;5024910;28;20178;-71
2022/04/14 05:13:58;;;;;;;8.48;5.40;;;12.20;99.90;;;;;;5022518;28;20250;-70
2022/04/14 05:16:24;;;;;;;8.45;5.80;;;12.20;99.90;;;;;;5023207;28;20208;-69
2022/04/14 05:18:50;;;;;;;8.38;5.38;;;12.20;99.90;;;;;;5024117;28;20330;-68
2022/04/14 05:21:16;;;;;;;8.00;4.85;;;12.20;99.90;;;;;;5024747;28;20192;-69
2022/04/14 05:23:42;;;;;;;8.60;5.95;;;12.30;99.90;;;;;;5024579;28;20183;-69
2022/04/14 05:26:08;;;;;;;7.47;5.38;;;12.30;99.90;;;;;;5024411;28;20281;-71
2022/04/14 05:28:34;;;;;;;7.00;5.20;;;12.30;99.90;;;;;;5023728;28;20203;-69
2022/04/14 05:31:00;;;;;;;6.25;5.57;;;12.30;99.90;;;;;;5006705;28;20193;-71
2022/04/14 05:33:25;;;;;;;7.97;4.85;;;12.30;99.90;;;;;;5024361;28;20175;-70
2022/04/14 05:35:51;;;;;;;7.95;5.15;;;12.40;99.90;;;;;;5024332;28;20202;-71
2022/04/14 05:38:17;;;;;;;7.28;5.15;;;12.40;99.90;;;;;;5024053;28;20608;-69
2022/04/14 05:40:45;;;;;;;8.55;6.30;;;12.40;99.90;;;;;;5024180;28;20234;-69
2022/04/14 05:43:17;;;;;;;8.48;5.70;;;12.40;99.90;;;;;;5024432;28;20187;-69
2022/04/14 05:45:48;;;;;;;6.60;5.55;;;12.40;99.90;;;;;;5024169;28;20684;-69
2022/04/14 05:48:15;;;;;;;6.43;5.05;;;12.50;99.90;;;;;;5023255;28;20807;-70
2022/04/14 05:50:42;;;;;;;9.35;5.90;;;12.50;99.90;;;;;;5023638;28;20175;-69
2022/04/14 05:53:07;;;;;;;7.13;5.47;;;12.50;99.90;;;;;;5024052;28;20175;-71
2022/04/14 05:55:33;;;;;;;9.85;5.95;;;12.50;99.90;;;;;;5024215;28;20175;-71
2022/04/14 05:57:59;;;;;;;7.75;5.53;;;12.50;99.90;;;;;;5023104;28;20193;-70
2022/04/14 06:00:24;;;;;;;7.35;5.53;;;12.50;99.90;;;;;;5023855;28;20179;-70
2022/04/14 06:02:50;;;;;;;9.60;6.15;;;12.60;99.90;;;;;;5024344;28;20240;-69
2022/04/14 06:05:15;;;;;;;6.78;5.70;;;12.60;99.90;;;;;;5024048;28;20237;-70
2022/04/14 06:07:41;;;;;;;8.52;6.18;;;12.60;99.90;;;;;;5023536;28;20273;-68
2022/04/14 06:10:07;;;;;;;8.32;6.15;;;12.50;99.90;;;;;;5024253;28;20217;-69
2022/04/14 06:12:32;;;;;;;9.75;5.93;;;12.50;99.90;;;;;;5024023;28;20218;-71
2022/04/14 06:14:58;;;;;;;7.85;6.15;;;12.60;99.90;;;;;;5024029;28;20937;-69
2022/04/14 06:17:23;;;;;;;13.57;6.90;;;12.60;99.90;;;;;;5023229;28;20195;-71
2022/04/14 06:19:50;;;;;;;7.03;5.90;;;12.60;99.90;;;;;;5024085;28;20285;-71
2022/04/14 06:22:15;;;;;;;11.13;6.60;;;12.60;99.90;;;;;;5023767;28;20175;-68
2022/04/14 06:24:41;;;;;;;9.57;6.68;;;12.60;99.90;;;;;;5023958;28;20719;-69
2022/04/14 06:27:06;;;;;;;8.38;6.18;;;12.50;99.90;;;;;;5022732;28;20245;-68
2022/04/14 06:29:32;;;;;;;8.85;6.18;;;12.50;99.90;;;;;;5024171;28;20202;-69
2022/04/14 06:31:58;;;;;;;10.70;6.75;;;12.50;99.90;;;;;;5023720;28;20638;-71
2022/04/14 06:34:23;;;;;;;8.68;6.28;;;12.50;99.90;;;;;;5024475;28;20616;-68
2022/04/14 06:36:49;;;;;;;6.95;5.70;;;12.40;99.90;;;;;;5023113;28;20293;-67
2022/04/14 06:39:15;;;;;;;9.10;6.20;;;12.40;99.90;;;;;;5024047;28;20582;-69
2022/04/14 06:41:41;;;;;;;8.48;6.00;;;12.40;99.90;;;;;;5023500;28;20274;-69
2022/04/14 06:44:07;;;;;;;9.23;6.30;;;12.40;99.90;;;;;;5024305;28;20191;-68
2022/04/14 06:46:32;;;;;;;10.68;5.70;;;12.50;99.90;;;;;;5023026;28;20575;-69
2022/04/14 06:48:58;;;;;;;10.05;5.78;;;12.50;99.90;;;;;;5023630;28;20238;-68
2022/04/14 06:51:24;;;;;;;9.23;6.00;;;12.40;99.90;;;;;;5023521;28;20191;-69
2022/04/14 06:53:49;;;;;;;8.63;5.95;;;12.50;99.90;;;;;;5023543;28;20206;-69
2022/04/14 06:56:15;;;;;;;9.52;6.20;;;12.50;99.90;;;;;;5023653;28;20205;-67
2022/04/14 06:58:42;;;;;;;10.48;6.65;;;12.40;99.90;;;;;;5023459;28;20210;-67
2022/04/14 07:01:08;;;;;;;8.85;6.63;;;12.30;99.90;;;;;;5025801;28;20218;-69
2022/04/14 07:03:35;;;;;;;10.85;6.88;;;12.30;99.90;;;;;;5027559;28;20545;-69
2022/04/14 07:06:00;;;;;;;9.15;5.70;;;12.30;99.90;;;;;;5027091;28;20213;-69
2022/04/14 07:08:30;;;;;;;11.38;6.30;;;12.40;99.90;;;;;;5008805;28;20207;-69
2022/04/14 07:10:57;;;;;;;12.55;6.43;;;12.40;99.90;;;;;;5026619;28;20266;-68
2022/04/14 07:13:23;;;;;;;9.45;6.53;;;12.40;99.90;;;;;;5023114;28;20171;-69
2022/04/14 07:15:48;;;;;;;8.88;6.38;;;12.50;99.90;;;;;;5024968;28;20201;-69
2022/04/14 07:18:14;;;;;;;9.75;6.38;;;12.50;99.90;;;;;;5024222;28;20230;-69
2022/04/14 07:20:39;;;;;;;10.65;6.90;;;12.60;99.90;;;;;;5024781;28;20729;-68
2022/04/14 07:23:06;;;;;;;9.45;6.88;;;12.60;99.90;;;;;;5024986;28;20490;-68
2022/04/14 07:25:33;;;;;;;10.95;7.10;;;12.70;99.90;;;;;;5024746;28;20206;-67
2022/04/14 07:28:00;;;;;;;11.65;7.40;;;12.70;99.90;;;;;;5006280;28;20555;-68
2022/04/14 07:30:26;;;;;;;10.73;7.80;;;12.70;99.90;;;;;;5024736;28;20183;-69
2022/04/14 07:32:53;;;;;;;9.98;7.35;;;12.70;99.90;;;;;;5023240;28;20262;-67
2022/04/14 07:35:25;;;;;;;12.63;8.48;;;12.70;99.90;;;;;;5024286;28;20183;-68
2022/04/14 07:37:51;;;;;;;12.15;8.15;;;12.60;99.90;;;;;;5006359;28;20670;-68
2022/04/14 07:40:18;;;;;;;11.10;8.50;;;12.50;99.90;;;;;;5024015;28;20340;-69
2022/04/14 07:42:46;;;;;;;11.93;8.57;;;12.60;99.90;;;;;;5005868;28;20191;-66
2022/04/14 07:45:13;;;;;;;13.60;8.88;;;12.60;99.90;;;;;;5025135;28;20183;-68
2022/04/14 07:47:43;;;;;;;13.00;8.77;;;12.60;99.90;;;;;;5024052;28;20223;-67
2022/04/14 07:50:13;;;;;;;14.57;9.00;;;12.50;99.90;;;;;;5023126;28;20205;-69
2022/04/14 07:52:44;;;;;;;14.85;9.10;;;12.50;99.90;;;;;;5025104;28;20182;-68
2022/04/14 07:55:09;;;;;;;11.07;8.65;;;12.50;99.90;;;;;;5024886;28;20188;-69
2022/04/14 07:57:35;;;;;;;13.80;9.15;;;12.60;99.90;;;;;;5024621;28;20779;-67
2022/04/14 08:00:01;;;;;;;12.27;9.18;;;12.60;99.90;;;;;;5023120;28;20609;-69
2022/04/14 08:02:26;;;;;;;12.00;8.98;;;12.60;99.90;;;;;;5023386;28;20215;-69
2022/04/14 08:04:52;;;;;;;12.95;8.63;;;12.60;99.90;;;;;;5024453;28;20178;-68
2022/04/14 08:07:17;;;;;;;14.85;9.55;;;12.60;99.90;;;;;;5024342;28;20315;-70
2022/04/14 08:09:43;;;;;;;14.63;9.23;;;12.70;99.90;;;;;;5025122;28;20237;-68
2022/04/14 08:12:09;;;;;;;13.55;9.45;;;12.80;99.90;;;;;;5024373;28;20187;-67
2022/04/14 08:14:35;;;;;;;13.23;10.02;;;12.70;99.90;;;;;;5025130;28;20178;-68
2022/04/14 08:17:04;;;;;;;14.85;9.60;;;12.80;99.90;;;;;;5024970;28;20186;-68
2022/04/14 08:19:30;;;;;;;12.13;9.57;;;12.80;99.90;;;;;;5024063;28;20215;-68
2022/04/14 08:21:56;;;;;;;17.17;10.35;;;12.70;99.90;;;;;;5023693;28;20179;-67
2022/04/14 08:24:23;;;;;;;12.93;9.38;;;12.60;99.90;;;;;;5023026;28;20646;-67
2022/04/14 08:26:48;;;;;;;13.73;10.27;;;12.60;99.90;;;;;;5023153;28;20969;-68
2022/04/14 08:29:14;;;;;;;15.15;9.88;;;12.50;99.90;;;;;;5023078;28;20202;-67
2022/04/14 08:31:40;;;;;;;14.80;10.98;;;12.50;99.90;;;;;;5021476;28;20206;-67
2022/04/14 08:34:06;;;;;;;15.48;9.90;;;12.60;99.90;;;;;;5023224;28;20213;-70
2022/04/14 08:36:32;;;;;;;14.02;10.05;;;12.70;99.90;;;;;;5022734;28;20190;-69
2022/04/14 08:38:57;;;;;;;13.88;10.10;;;12.70;99.90;;;;;;5023215;28;20253;-67
2022/04/14 08:41:26;;;;;;;13.38;9.43;;;12.70;99.90;;;;;;5023352;28;20209;-68
2022/04/14 08:43:58;;;;;;;13.70;9.48;;;12.70;99.90;;;;;;5022900;28;20229;-68
2022/04/14 08:46:25;;;;;;;13.93;10.02;;;12.80;99.90;;;;;;5022509;28;20203;-66
2022/04/14 08:48:51;;;;;;;15.20;9.95;;;12.90;99.90;;;;;;5022291;28;20244;-67
2022/04/14 08:51:21;;;;;;;13.90;10.00;;;12.80;99.90;;;;;;5023338;28;20534;-68
2022/04/14 08:53:48;;;;;;;12.70;9.32;;;12.80;99.90;;;;;;5023080;28;20191;-67
2022/04/14 08:56:14;;;;;;;13.73;9.60;;;12.90;99.90;;;;;;5022231;28;20191;-67
2022/04/14 08:58:42;;;;;;;12.45;9.57;;;13.00;99.90;;;;;;5022191;28;20209;-68
2022/04/14 09:01:08;;;;;;;11.88;9.82;;;13.00;99.90;;;;;;5023222;28;20542;-69
2022/04/14 09:03:34;;;;;;;13.02;10.30;;;13.10;99.90;;;;;;5022594;28;20466;-68
2022/04/14 09:06:00;;;;;;;12.63;9.07;;;13.30;99.90;;;;;;5023074;28;20224;-68
2022/04/14 09:08:26;;;;;;;13.65;9.88;;;13.40;99.90;;;;;;5021356;28;20249;-67
2022/04/14 09:10:52;;;;;;;13.80;10.32;;;13.50;99.90;;;;;;5005042;28;20273;-69
2022/04/14 09:13:20;;;;;;;13.15;10.07;;;13.60;99.90;;;;;;5022309;28;20389;-67
2022/04/14 09:15:48;;;;;;;13.40;9.65;;;13.60;99.90;;;;;;5022699;28;20210;-67
2022/04/14 09:18:15;;;;;;;13.65;11.27;;;13.80;99.90;;;;;;5021258;28;20213;-69
2022/04/14 09:20:42;;;;;;;13.35;10.68;;;14.00;99.90;;;;;;5004342;28;20197;-67
2022/04/14 09:23:21;;;;;;;13.60;10.02;;;14.10;99.90;;;;;;5022002;28;20183;-69
2022/04/14 09:25:52;;;;;;;15.68;10.48;;;14.10;99.90;;;;;;5022248;28;20250;-68
2022/04/14 09:28:20;;;;;;;12.90;9.13;;;14.20;99.90;;;;;;5021208;28;20712;-67
2022/04/14 09:30:59;;;;;;;12.10;8.40;;;14.20;99.90;;;;;;5021049;28;20236;-71
2022/04/14 09:33:25;;;;;;;12.65;8.70;;;14.30;99.90;;;;;;5021969;28;20202;-68
2022/04/14 09:36:14;;;;;;;10.85;7.38;;;14.30;99.90;;;;;;5022118;28;20226;-68
2022/04/14 09:39:07;;;;;;;12.95;7.72;;;14.30;99.90;;;;;;5021282;28;20213;-70
2022/04/14 09:41:41;;;;;;;14.50;9.77;;;14.40;99.90;;;;;;5022297;28;20348;-69
2022/04/14 09:44:10;;;;;;;15.35;10.00;;;14.30;99.90;;;;;;5022511;28;20233;-67
2022/04/14 09:46:37;;;;;;;18.98;11.00;;;14.40;99.90;;;;;;5022070;28;20207;-69
2022/04/14 09:49:11;;;;;;;17.98;12.25;;;14.30;99.90;;;;;;5021429;28;20235;-69
2022/04/14 09:51:42;;;;;;;17.20;11.27;;;14.20;99.90;;;;;;5022634;28;20338;-68
2022/04/14 09:54:17;;;;;;;16.83;11.23;;;14.40;99.90;;;;;;5004342;28;20182;-72
2022/04/14 09:56:52;;;;;;;15.20;10.32;;;14.40;99.90;;;;;;5021711;28;20186;-68
2022/04/14 09:59:20;;;;;;;14.88;9.73;;;14.40;99.90;;;;;;5021965;28;20206;-71
2022/04/14 10:01:47;;;;;;;10.52;8.23;;;14.50;99.90;;;;;;5022596;28;20191;-68
2022/04/14 10:04:31;;;;;;;8.73;6.78;;;14.70;99.90;;;;;;5021865;28;20183;-69
2022/04/14 10:07:08;;;;;;;11.52;7.25;;;14.60;99.90;;;;;;5021636;28;20336;-67
2022/04/14 10:09:38;;;;;;;9.07;7.25;;;14.40;99.90;;;;;;5021493;28;20225;-69
2022/04/14 10:12:24;;;;;;;10.20;7.60;;;14.40;99.90;;;;;;5022117;28;20183;-69
2022/04/14 10:14:56;;;;;;;11.40;9.07;;;14.30;99.90;;;;;;5003930;28;20193;-69
2022/04/14 10:17:24;;;;;;;9.93;8.23;;;14.20;99.90;;;;;;5021250;28;20230;-69
2022/04/14 10:19:51;;;;;;;11.80;8.60;;;14.00;99.90;;;;;;5021600;28;20218;-69
2022/04/14 10:22:17;;;;;;;12.98;10.30;;;14.10;99.90;;;;;;5022418;28;20879;-70
2022/04/14 10:24:44;;;;;;;14.35;11.18;;;14.10;99.90;;;;;;5021681;28;20337;-69
2022/04/14 10:27:10;;;;;;;14.93;11.65;;;14.10;99.90;;;;;;5021153;28;20584;-68
2022/04/14 10:29:37;;;;;;;16.50;11.43;;;14.10;99.90;;;;;;5021808;28;20234;-69
2022/04/14 10:32:05;;;;;;;12.95;11.13;;;14.20;99.90;;;;;;5002583;28;20273;-68
2022/04/14 10:34:31;;;;;;;12.73;11.32;;;14.20;99.90;;;;;;5021755;28;20266;-71
2022/04/14 10:36:57;;;;;;;13.63;11.25;;;14.20;99.90;;;;;;5024538;28;20307;-70
2022/04/14 10:39:23;;;;;;;15.27;12.40;;;14.30;99.90;;;;;;5025861;28;20300;-69
2022/04/14 10:41:51;;;;;;;16.27;12.13;;;14.30;99.90;;;;;;5024946;28;20183;-70
2022/04/14 10:44:21;;;;;;;15.45;12.02;;;14.40;99.90;;;;;;5026434;28;20187;-68
2022/04/14 10:46:50;;;;;;;15.75;12.95;;;14.30;99.90;;;;;;5025156;28;20312;-67
2022/04/14 10:49:24;;;;;;;13.35;11.35;;;14.40;99.90;;;;;;5026143;28;20536;-72
2022/04/14 10:51:56;;;;;;;12.40;10.65;;;14.30;99.90;;;;;;5026639;28;20675;-70
2022/04/14 10:54:21;;;;;;;12.18;10.43;;;14.20;99.90;;;;;;5025925;28;20175;-69
2022/04/14 10:56:51;;;;;;;11.25;10.05;;;14.30;99.90;;;;;;5007617;28;20252;-72
2022/04/14 10:59:19;;;;;;;10.90;8.40;;;14.40;99.90;;;;;;5025075;28;21084;-72
2022/04/14 11:04:44;;;;;;;9.50;7.32;;;14.80;99.90;;;;;;5025319;28;20604;-68
2022/04/14 11:07:23;;;;;;;10.10;7.65;;;14.90;99.90;;;;;;4979130;28;21456;-68
2022/04/14 11:09:52;;;;;;;7.75;6.28;;;15.00;99.90;;;;;;5025285;28;20623;-71
2022/04/14 11:12:27;;;;;;;7.13;6.10;;;14.90;99.90;;;;;;5024804;28;20714;-68
2022/04/14 11:14:58;;;;;;;7.85;6.20;;;15.10;99.90;;;;;;5025210;28;20189;-68
2022/04/14 11:17:37;;;;;;;7.80;5.97;;;15.30;99.90;;;;;;5006590;28;20179;-69
2022/04/14 11:20:14;;;;;;;7.57;5.57;;;15.50;99.90;;;;;;5025125;28;20272;-69
2022/04/14 11:23:08;;;;;;;8.45;6.05;;;15.60;99.90;;;;;;5024954;28;20244;-67
2022/04/14 11:25:47;;;;;;;8.57;6.32;;;15.70;99.90;;;;;;5024418;28;20233;-69
2022/04/14 11:28:25;;;;;;;9.15;7.10;;;15.80;99.90;;;;;;5024431;28;20258;-70
2022/04/14 11:30:59;;;;;;;8.68;6.20;;;16.00;99.90;;;;;;5005802;28;20186;-69
2022/04/14 11:33:28;;;;;;;8.52;6.18;;;16.00;99.90;;;;;;5024695;28;20178;-71
2022/04/14 11:36:06;;;;;;;8.77;6.30;;;16.00;99.90;;;;;;5024662;28;20219;-69
2022/04/14 11:38:59;;;;;;;9.02;6.50;;;16.10;99.90;;;;;;5024160;28;20202;-69
2022/04/14 11:41:31;;;;;;;8.63;5.45;;;16.30;99.90;;;;;;5024712;28;20183;-68
2022/04/14 11:43:56;;;;;;;8.27;5.60;;;16.50;99.90;;;;;;5006545;28;20190;-68
2022/04/14 11:46:25;;;;;;;6.80;5.38;;;16.80;99.90;;;;;;5023959;28;20214;-69
2022/04/14 11:48:51;;;;;;;5.82;4.97;;;17.00;99.90;;;;;;5022685;28;20198;-70
2022/04/14 11:51:17;;;;;;;5.72;5.13;;;17.10;99.90;;;;;;5024738;28;20187;-70
2022/04/14 11:53:43;;;;;;;6.60;4.85;;;17.30;99.90;;;;;;5023964;28;20187;-70
2022/04/14 11:56:18;;;;;;;5.63;4.50;;;17.40;99.90;;;;;;5006298;28;20194;-70
2022/04/14 11:58:45;;;;;;;7.25;5.68;;;17.30;99.90;;;;;;5005933;28;20202;-67
2022/04/14 12:01:12;;;;;;;7.00;5.20;;;17.20;99.90;;;;;;5024406;28;20239;-67
2022/04/14 12:03:38;;;;;;;6.97;5.15;;;17.40;99.90;;;;;;5006119;28;20221;-68
2022/04/14 12:06:14;;;;;;;7.93;5.03;;;17.70;99.90;;;;;;5024449;28;20598;-67
2022/04/14 12:08:39;;;;;;;8.05;5.80;;;18.20;99.90;;;;;;5023530;28;20198;-68
2022/04/14 12:11:14;;;;;;;8.02;5.65;;;17.90;99.90;;;;;;5024202;28;20592;-69
2022/04/14 12:13:40;;;;;;;10.77;7.40;;;17.90;99.90;;;;;;5024106;28;20193;-69
2022/04/14 12:16:08;;;;;;;12.57;8.57;;;18.00;99.90;;;;;;5006304;28;20190;-69
2022/04/14 12:18:35;;;;;;;8.63;7.45;;;18.10;99.90;;;;;;5005057;28;20815;-70
2022/04/14 12:21:01;;;;;;;8.40;6.90;;;18.00;99.90;;;;;;5023688;28;20186;-68
2022/04/14 12:23:27;;;;;;;9.10;6.75;;;17.80;99.90;;;;;;5005658;28;20193;-68
2022/04/14 12:25:54;;;;;;;9.75;8.30;;;18.10;99.90;;;;;;5026265;28;20570;-69
2022/04/14 12:28:20;;;;;;;11.48;9.48;;;18.20;99.90;;;;;;5024943;28;20684;-69
2022/04/14 12:30:46;;;;;;;9.27;8.30;;;18.10;99.90;;;;;;5025558;28;20225;-69
2022/04/14 12:33:11;;;;;;;10.90;9.07;;;18.20;99.90;;;;;;5026032;28;20187;-72
2022/04/14 12:35:37;;;;;;;10.20;8.25;;;18.20;99.90;;;;;;5025784;28;20203;-68
2022/04/14 12:38:17;;;;;;;11.38;7.93;;;18.00;99.90;;;;;;5025366;28;20733;-68
2022/04/14 12:41:17;;;;;;;12.05;8.27;;;18.00;99.90;;;;;;5005878;28;20686;-71
2022/04/14 12:43:46;;;;;;;8.55;7.22;;;18.00;99.90;;;;;;4994251;28;20253;-69
2022/04/14 12:46:34;;;;;;;9.20;8.30;;;17.90;99.90;;;;;;5023247;28;20207;-68